Time;durP1;ratioP1;P1;durP2;ratioP2;P2;SDS_P1;SDS_P2;PMS_P1;PMS_P2;Temp;Humidity;BMP_temperature;BMP_pressure;BME280_temperature;BME280_humidity;BME280_pressure;Samples;Min_cycle;Max_cycle;Signal;HPM_P1;HPM_P2
2020/12/29 00:00:23;;;;;;;20.90;13.48;;;;;;;;;;5015991;28;20514;-66
2020/12/29 00:02:52;;;;;;;22.42;14.02;;;;;;;;;;5015980;28;20025;-66
2020/12/29 00:05:18;;;;;;;22.38;14.10;;;;;;;;;;5015994;28;20033;-66
2020/12/29 00:07:53;;;;;;;22.88;14.13;;;;;;;;;;5015995;28;20026;-66
2020/12/29 00:10:25;;;;;;;20.05;14.05;;;;;;;;;;5015704;28;20042;-66
2020/12/29 00:12:52;;;;;;;24.10;14.52;;;;;;;;;;5015576;28;20141;-66
2020/12/29 00:15:18;;;;;;;23.73;14.88;;;;;;;;;;5015671;28;20026;-66
2020/12/29 00:17:45;;;;;;;22.33;14.35;;;;;;;;;;5016164;28;20030;-66
2020/12/29 00:20:11;;;;;;;27.77;17.83;;;;;;;;;;5015667;28;20092;-65
2020/12/29 00:22:37;;;;;;;32.40;18.80;;;;;;;;;;5015880;28;20439;-66
2020/12/29 00:25:04;;;;;;;27.83;19.30;;;;;;;;;;5015613;28;20034;-66
2020/12/29 00:27:30;;;;;;;28.30;17.80;;;;;;;;;;5015527;28;20080;-66
2020/12/29 00:29:56;;;;;;;28.88;17.65;;;;;;;;;;5015298;28;20054;-66
2020/12/29 00:32:22;;;;;;;25.90;16.08;;;;;;;;;;5015515;28;20105;-66
2020/12/29 00:34:48;;;;;;;23.92;16.17;;;;;;;;;;5015567;28;20030;-66
2020/12/29 00:37:14;;;;;;;28.83;16.95;;;;;;;;;;5015367;28;20077;-66
2020/12/29 00:39:41;;;;;;;24.17;14.80;;;;;;;;;;4997697;28;20084;-66
2020/12/29 00:42:08;;;;;;;25.02;14.93;;;;;;;;;;5015607;28;20429;-66
2020/12/29 00:44:34;;;;;;;25.75;15.05;;;;;;;;;;5015146;28;20038;-66
2020/12/29 00:47:00;;;;;;;26.17;15.45;;;;;;;;;;5015080;28;20026;-66
2020/12/29 00:49:26;;;;;;;25.42;14.20;;;;;;;;;;5015250;28;20478;-66
2020/12/29 00:51:56;;;;;;;24.33;15.32;;;;;;;;;;5015020;28;20446;-66
2020/12/29 00:54:22;;;;;;;24.13;14.10;;;;;;;;;;5015151;28;20475;-66
2020/12/29 00:56:48;;;;;;;23.75;13.93;;;;;;;;;;5014898;28;20033;-66
2020/12/29 00:59:14;;;;;;;23.95;15.68;;;;;;;;;;5015004;28;20025;-66
2020/12/29 01:01:41;;;;;;;24.67;14.20;;;;;;;;;;5014894;28;20033;-66
2020/12/29 01:04:07;;;;;;;24.20;14.60;;;;;;;;;;5014843;28;20037;-66
2020/12/29 01:06:33;;;;;;;23.27;13.63;;;;;;;;;;5014743;28;20030;-66
2020/12/29 01:08:59;;;;;;;25.52;15.10;;;;;;;;;;5014994;28;20026;-66
2020/12/29 01:11:25;;;;;;;23.55;12.52;;;;;;;;;;5014793;28;20026;-66
2020/12/29 01:13:51;;;;;;;22.08;13.93;;;;;;;;;;5014680;28;20109;-66
2020/12/29 01:16:18;;;;;;;21.25;14.02;;;;;;;;;;5014417;28;20025;-66
2020/12/29 01:18:44;;;;;;;25.80;14.50;;;;;;;;;;5014641;28;20030;-66
2020/12/29 01:21:10;;;;;;;24.33;13.80;;;;;;;;;;5014616;28;20021;-65
2020/12/29 01:23:37;;;;;;;21.08;12.80;;;;;;;;;;5014592;28;20475;-66
2020/12/29 01:26:03;;;;;;;21.30;13.20;;;;;;;;;;5014655;28;20045;-66
2020/12/29 01:28:30;;;;;;;22.67;13.20;;;;;;;;;;5014570;28;20030;-66
2020/12/29 01:30:56;;;;;;;28.48;13.43;;;;;;;;;;5014188;28;20479;-66
2020/12/29 01:33:22;;;;;;;24.58;12.60;;;;;;;;;;5014250;28;20026;-66
2020/12/29 01:35:48;;;;;;;24.02;12.23;;;;;;;;;;4996679;28;20112;-66
2020/12/29 01:38:14;;;;;;;19.52;12.43;;;;;;;;;;5014553;28;20026;-66
2020/12/29 01:40:41;;;;;;;19.70;11.93;;;;;;;;;;5014315;28;20092;-66
2020/12/29 01:43:08;;;;;;;23.08;12.23;;;;;;;;;;5014157;28;20041;-66
2020/12/29 01:45:34;;;;;;;21.20;12.43;;;;;;;;;;5014198;28;20060;-66
2020/12/29 01:48:00;;;;;;;19.17;11.32;;;;;;;;;;5013960;28;20486;-66
2020/12/29 01:50:27;;;;;;;22.25;12.20;;;;;;;;;;5014375;28;20046;-66
2020/12/29 01:52:57;;;;;;;23.45;12.07;;;;;;;;;;5013890;28;20398;-66
2020/12/29 01:55:24;;;;;;;21.20;12.30;;;;;;;;;;5013903;28;20207;-66
2020/12/29 01:57:50;;;;;;;19.83;12.57;;;;;;;;;;5013820;28;20029;-65
2020/12/29 02:00:16;;;;;;;23.80;12.15;;;;;;;;;;5014170;28;20069;-66
2020/12/29 02:02:42;;;;;;;20.77;11.27;;;;;;;;;;5013753;28;20029;-66
2020/12/29 02:05:09;;;;;;;19.95;11.50;;;;;;;;;;5014036;28;20026;-66
2020/12/29 02:07:35;;;;;;;19.70;11.20;;;;;;;;;;5013873;28;20022;-66
2020/12/29 02:10:02;;;;;;;20.08;11.10;;;;;;;;;;5013751;28;20029;-66
2020/12/29 02:12:29;;;;;;;14.38;9.95;;;;;;;;;;5013706;28;20018;-66
2020/12/29 02:14:55;;;;;;;17.25;9.55;;;;;;;;;;5014053;28;20022;-66
2020/12/29 02:17:22;;;;;;;18.75;9.63;;;;;;;;;;5013534;28;20034;-66
2020/12/29 02:19:48;;;;;;;16.80;9.30;;;;;;;;;;5013657;28;20076;-66
2020/12/29 02:22:18;;;;;;;14.88;8.93;;;;;;;;;;5013477;28;20033;-66
2020/12/29 02:24:47;;;;;;;20.77;9.50;;;;;;;;;;5013660;28;20041;-66
2020/12/29 02:27:14;;;;;;;14.90;8.18;;;;;;;;;;4995816;28;20391;-66
2020/12/29 02:29:40;;;;;;;15.10;8.50;;;;;;;;;;4992571;28;20499;-65
2020/12/29 02:32:06;;;;;;;15.13;8.48;;;;;;;;;;4994226;28;20411;-66
2020/12/29 02:34:32;;;;;;;16.42;7.90;;;;;;;;;;4993697;28;20083;-66
2020/12/29 02:36:58;;;;;;;14.57;7.63;;;;;;;;;;4992131;28;20117;-66
2020/12/29 02:39:24;;;;;;;13.90;7.32;;;;;;;;;;4993852;28;20046;-66
2020/12/29 02:41:50;;;;;;;13.68;7.30;;;;;;;;;;4993824;28;20041;-66
2020/12/29 02:44:20;;;;;;;14.73;7.35;;;;;;;;;;4993738;28;20065;-66
2020/12/29 02:46:50;;;;;;;11.65;6.45;;;;;;;;;;4993678;28;20025;-65
2020/12/29 02:49:16;;;;;;;11.30;6.15;;;;;;;;;;4993957;28;20128;-66
2020/12/29 02:51:45;;;;;;;12.35;7.28;;;;;;;;;;4993827;28;20026;-66
2020/12/29 02:54:12;;;;;;;11.02;6.47;;;;;;;;;;4993627;28;20022;-66
2020/12/29 02:56:39;;;;;;;11.40;6.22;;;;;;;;;;4993949;28;20052;-66
2020/12/29 02:59:05;;;;;;;14.13;5.60;;;;;;;;;;4993620;28;20022;-66
2020/12/29 03:01:31;;;;;;;10.55;5.40;;;;;;;;;;4993628;28;20391;-66
2020/12/29 03:03:57;;;;;;;14.60;5.90;;;;;;;;;;4993505;28;20062;-66
2020/12/29 03:06:23;;;;;;;9.55;5.45;;;;;;;;;;4993617;28;20084;-66
2020/12/29 03:08:50;;;;;;;14.50;5.00;;;;;;;;;;4993405;28;20054;-66
2020/12/29 03:11:23;;;;;;;10.98;4.70;;;;;;;;;;4995794;28;20534;-64
2020/12/29 03:13:49;;;;;;;9.50;5.00;;;;;;;;;;5005218;28;20030;-66
2020/12/29 03:16:15;;;;;;;9.40;4.25;;;;;;;;;;5013045;28;20030;-66
2020/12/29 03:18:41;;;;;;;10.43;4.07;;;;;;;;;;5012912;28;20140;-66
2020/12/29 03:21:07;;;;;;;12.82;4.28;;;;;;;;;;5013318;28;20109;-66
2020/12/29 03:23:33;;;;;;;7.60;4.03;;;;;;;;;;5012746;28;20151;-66
2020/12/29 03:25:59;;;;;;;9.43;3.22;;;;;;;;;;5012973;28;20054;-66
2020/12/29 03:28:26;;;;;;;7.15;3.45;;;;;;;;;;5012904;28;20034;-66
2020/12/29 03:30:52;;;;;;;8.20;3.92;;;;;;;;;;5030376;28;20049;-66
2020/12/29 03:33:18;;;;;;;8.35;3.75;;;;;;;;;;5032657;28;20067;-67
2020/12/29 03:35:44;;;;;;;10.68;4.20;;;;;;;;;;5024612;28;20037;-66
2020/12/29 03:38:10;;;;;;;7.97;4.30;;;;;;;;;;5012974;28;20028;-67
2020/12/29 03:40:36;;;;;;;8.30;3.80;;;;;;;;;;5012878;28;20029;-66
2020/12/29 03:43:03;;;;;;;11.07;4.03;;;;;;;;;;5013169;28;20470;-66
2020/12/29 03:45:29;;;;;;;10.10;3.78;;;;;;;;;;5013047;28;20026;-66
2020/12/29 03:47:55;;;;;;;6.28;3.70;;;;;;;;;;5012882;28;20022;-64
2020/12/29 03:50:21;;;;;;;7.30;3.95;;;;;;;;;;5016073;28;20026;-64
2020/12/29 03:52:47;;;;;;;8.38;3.47;;;;;;;;;;5016247;28;20033;-63
2020/12/29 03:55:14;;;;;;;8.45;3.47;;;;;;;;;;5016273;28;20037;-64
2020/12/29 03:57:40;;;;;;;9.63;4.07;;;;;;;;;;5016118;28;20022;-63
2020/12/29 04:00:06;;;;;;;12.57;3.85;;;;;;;;;;5016103;28;20029;-63
2020/12/29 04:02:32;;;;;;;10.85;3.53;;;;;;;;;;5016096;28;20080;-63
2020/12/29 04:04:58;;;;;;;8.57;3.13;;;;;;;;;;5016097;28;20430;-63
2020/12/29 04:07:24;;;;;;;7.75;3.22;;;;;;;;;;5016240;28;20023;-63
2020/12/29 04:09:51;;;;;;;11.23;3.33;;;;;;;;;;5016138;28;20044;-63
2020/12/29 04:12:17;;;;;;;5.63;2.65;;;;;;;;;;5015900;28;20025;-63
2020/12/29 04:14:43;;;;;;;7.50;3.22;;;;;;;;;;5015882;28;20034;-64
2020/12/29 04:17:09;;;;;;;5.93;2.90;;;;;;;;;;5016068;28;20022;-64
2020/12/29 04:19:35;;;;;;;8.27;3.05;;;;;;;;;;5016103;28;20033;-63
2020/12/29 04:22:01;;;;;;;6.28;2.63;;;;;;;;;;5015759;28;20030;-63
2020/12/29 04:24:27;;;;;;;6.57;2.45;;;;;;;;;;5015568;28;20136;-63
2020/12/29 04:26:54;;;;;;;6.60;2.78;;;;;;;;;;5015615;28;20026;-63
2020/12/29 04:29:20;;;;;;;4.75;2.55;;;;;;;;;;5015317;28;20077;-64
2020/12/29 04:31:47;;;;;;;11.35;2.88;;;;;;;;;;5015461;28;20023;-64
2020/12/29 04:34:13;;;;;;;5.63;2.60;;;;;;;;;;5015413;28;20038;-63
2020/12/29 04:36:39;;;;;;;8.77;2.60;;;;;;;;;;5015353;28;20033;-63
2020/12/29 04:39:05;;;;;;;6.68;2.63;;;;;;;;;;5015301;28;20109;-64
2020/12/29 04:41:32;;;;;;;5.47;2.45;;;;;;;;;;5015174;28;20141;-64
2020/12/29 04:43:58;;;;;;;5.13;2.45;;;;;;;;;;5015176;28;20057;-63
2020/12/29 04:46:26;;;;;;;8.98;2.50;;;;;;;;;;5015148;28;20030;-63
2020/12/29 04:48:52;;;;;;;5.85;2.22;;;;;;;;;;5015198;28;20076;-64
2020/12/29 04:51:18;;;;;;;6.85;2.58;;;;;;;;;;5015182;28;20125;-64
2020/12/29 04:53:59;;;;;;;6.40;2.28;;;;;;;;;;5015137;28;20018;-64
2020/12/29 04:56:30;;;;;;;5.47;2.20;;;;;;;;;;5014975;28;20030;-63
2020/12/29 04:58:58;;;;;;;8.07;2.33;;;;;;;;;;5015349;28;20443;-64
2020/12/29 05:01:25;;;;;;;6.93;2.60;;;;;;;;;;5014683;28;20022;-63
2020/12/29 05:03:51;;;;;;;8.32;3.10;;;;;;;;;;5014734;28;20475;-63
2020/12/29 05:06:17;;;;;;;6.18;2.42;;;;;;;;;;5014996;28;20382;-64
2020/12/29 05:08:44;;;;;;;5.95;2.63;;;;;;;;;;5014705;28;20120;-64
2020/12/29 05:11:10;;;;;;;10.63;3.35;;;;;;;;;;5014492;28;20382;-65
2020/12/29 05:13:37;;;;;;;9.52;3.70;;;;;;;;;;5014896;28;20084;-64
2020/12/29 05:16:03;;;;;;;10.02;3.30;;;;;;;;;;5014519;28;20030;-63
2020/12/29 05:18:29;;;;;;;6.43;2.97;;;;;;;;;;5014678;28;20037;-63
2020/12/29 05:20:56;;;;;;;11.32;4.28;;;;;;;;;;5014633;28;20030;-63
2020/12/29 05:23:23;;;;;;;12.30;3.50;;;;;;;;;;5014324;28;20029;-64
2020/12/29 05:25:49;;;;;;;10.30;3.85;;;;;;;;;;5014439;28;20382;-63
2020/12/29 05:28:15;;;;;;;7.10;2.47;;;;;;;;;;5014307;28;20026;-63
2020/12/29 05:30:41;;;;;;;7.82;2.78;;;;;;;;;;5014057;28;20042;-64
2020/12/29 05:33:11;;;;;;;6.68;2.70;;;;;;;;;;5014297;28;20533;-63
2020/12/29 05:35:39;;;;;;;6.45;2.83;;;;;;;;;;5014158;28;20018;-63
2020/12/29 05:38:09;;;;;;;10.13;3.08;;;;;;;;;;5014185;28;20022;-64
2020/12/29 05:40:35;;;;;;;9.90;2.85;;;;;;;;;;5014383;28;20032;-64
2020/12/29 05:43:02;;;;;;;9.65;2.88;;;;;;;;;;5014423;28;20030;-64
2020/12/29 05:45:32;;;;;;;8.00;2.97;;;;;;;;;;5014037;28;20034;-64
2020/12/29 05:47:59;;;;;;;10.77;3.20;;;;;;;;;;5014095;28;20030;-64
2020/12/29 05:50:26;;;;;;;11.55;3.42;;;;;;;;;;4996423;28;20062;-63
2020/12/29 05:52:59;;;;;;;11.13;3.40;;;;;;;;;;5014017;28;20046;-64
2020/12/29 05:55:25;;;;;;;5.60;3.20;;;;;;;;;;5014117;28;20463;-63
2020/12/29 05:58:05;;;;;;;7.85;3.53;;;;;;;;;;5013946;28;20536;-64
2020/12/29 06:00:32;;;;;;;9.43;4.38;;;;;;;;;;5014103;28;20037;-63
2020/12/29 06:02:59;;;;;;;8.75;3.83;;;;;;;;;;5014010;28;20026;-64
2020/12/29 06:05:29;;;;;;;12.13;3.88;;;;;;;;;;5014117;28;20386;-64
2020/12/29 06:07:56;;;;;;;10.55;3.05;;;;;;;;;;5013589;28;20080;-63
2020/12/29 06:10:23;;;;;;;5.93;3.10;;;;;;;;;;5013940;28;20129;-64
2020/12/29 06:12:54;;;;;;;5.60;2.15;;;;;;;;;;5013045;28;20021;-64
2020/12/29 06:15:30;;;;;;;10.05;2.97;;;;;;;;;;5013958;28;20037;-64
2020/12/29 06:17:59;;;;;;;8.60;3.17;;;;;;;;;;5013419;28;20036;-64
2020/12/29 06:20:32;;;;;;;8.50;3.67;;;;;;;;;;5013873;28;20481;-64
2020/12/29 06:23:01;;;;;;;9.75;4.10;;;;;;;;;;5013599;28;20034;-64
2020/12/29 06:25:31;;;;;;;9.55;4.82;;;;;;;;;;5013480;28;20105;-64
2020/12/29 06:27:59;;;;;;;11.05;4.43;;;;;;;;;;5013394;28;20022;-64
2020/12/29 06:30:25;;;;;;;14.63;10.13;;;;;;;;;;5013470;28;20053;-64
2020/12/29 06:32:53;;;;;;;14.45;6.80;;;;;;;;;;5013309;28;20124;-64
2020/12/29 06:35:20;;;;;;;13.55;7.35;;;;;;;;;;5013410;28;20568;-64
2020/12/29 06:37:50;;;;;;;12.65;5.80;;;;;;;;;;5013320;28;20108;-64
2020/12/29 06:40:18;;;;;;;8.35;6.20;;;;;;;;;;5013380;28;20110;-64
2020/12/29 06:42:44;;;;;;;12.50;7.18;;;;;;;;;;5013148;28;20021;-64
2020/12/29 06:45:11;;;;;;;13.73;7.05;;;;;;;;;;5013626;28;20087;-66
2020/12/29 06:47:39;;;;;;;11.05;6.03;;;;;;;;;;5013273;28;20030;-66
2020/12/29 06:50:24;;;;;;;13.88;5.70;;;;;;;;;;5013384;28;20029;-66
2020/12/29 06:52:54;;;;;;;11.85;6.07;;;;;;;;;;5013204;28;20497;-67
2020/12/29 06:55:20;;;;;;;11.50;6.60;;;;;;;;;;5013360;28;20026;-66
2020/12/29 06:57:51;;;;;;;18.42;9.20;;;;;;;;;;5013194;28;20549;-66
2020/12/29 07:00:17;;;;;;;16.17;7.57;;;;;;;;;;5013610;28;20049;-66
2020/12/29 07:02:45;;;;;;;19.05;8.75;;;;;;;;;;5013259;28;20069;-66
2020/12/29 07:05:17;;;;;;;18.38;10.57;;;;;;;;;;5013560;28;20416;-66
2020/12/29 07:07:47;;;;;;;18.90;8.45;;;;;;;;;;5013061;28;20479;-66
2020/12/29 07:10:14;;;;;;;17.63;7.53;;;;;;;;;;5013135;28;20034;-66
2020/12/29 07:12:44;;;;;;;16.17;8.18;;;;;;;;;;5013257;28;20026;-66
2020/12/29 07:15:13;;;;;;;14.40;7.50;;;;;;;;;;5013129;28;20053;-66
2020/12/29 07:17:39;;;;;;;18.27;7.50;;;;;;;;;;5012917;28;20108;-66
2020/12/29 07:20:13;;;;;;;18.15;8.07;;;;;;;;;;5013275;28;20030;-65
2020/12/29 07:22:40;;;;;;;13.18;7.07;;;;;;;;;;5013815;28;20030;-67
2020/12/29 07:25:07;;;;;;;15.25;9.05;;;;;;;;;;5016947;28;20041;-66
2020/12/29 07:27:33;;;;;;;19.50;10.65;;;;;;;;;;5016882;28;20038;-66
2020/12/29 07:30:00;;;;;;;20.15;11.00;;;;;;;;;;5016593;28;20062;-66
2020/12/29 07:32:26;;;;;;;17.60;8.00;;;;;;;;;;5017155;28;20108;-66
2020/12/29 07:34:53;;;;;;;13.02;8.23;;;;;;;;;;5026186;28;20068;-66
2020/12/29 07:37:20;;;;;;;17.20;7.45;;;;;;;;;;5016582;28;20433;-66
2020/12/29 07:39:46;;;;;;;16.15;8.70;;;;;;;;;;5016511;28;20026;-64
2020/12/29 07:42:13;;;;;;;16.83;8.55;;;;;;;;;;5016745;28;20422;-64
2020/12/29 07:44:40;;;;;;;14.13;7.85;;;;;;;;;;5016293;28;20034;-64
2020/12/29 07:47:06;;;;;;;15.45;7.80;;;;;;;;;;5017579;28;20026;-62
2020/12/29 07:49:33;;;;;;;15.68;7.68;;;;;;;;;;5023558;28;20058;-64
2020/12/29 07:51:59;;;;;;;19.23;10.68;;;;;;;;;;5016334;28;20084;-64
2020/12/29 07:54:25;;;;;;;14.05;7.53;;;;;;;;;;5016194;28;20470;-65
2020/12/29 07:56:52;;;;;;;16.77;8.05;;;;;;;;;;5016293;28;20026;-65
2020/12/29 07:59:18;;;;;;;19.55;8.77;;;;;;;;;;5016062;28;20033;-65
2020/12/29 08:01:57;;;;;;;14.20;8.85;;;;;;;;;;5016140;28;20083;-65
2020/12/29 08:04:30;;;;;;;16.30;8.43;;;;;;;;;;5015877;28;20514;-64
2020/12/29 08:06:57;;;;;;;14.82;8.73;;;;;;;;;;5016259;28;20030;-64
2020/12/29 08:09:23;;;;;;;16.27;8.65;;;;;;;;;;4998370;28;20395;-65
2020/12/29 08:11:50;;;;;;;19.05;9.93;;;;;;;;;;5016055;28;20463;-65
2020/12/29 08:14:16;;;;;;;25.40;13.50;;;;;;;;;;5015727;28;20410;-64
2020/12/29 08:16:42;;;;;;;36.58;23.40;;;;;;;;;;5016028;28;20026;-65
2020/12/29 08:19:12;;;;;;;17.50;10.32;;;;;;;;;;5015960;28;20125;-65
2020/12/29 08:21:38;;;;;;;12.13;7.10;;;;;;;;;;5015963;28;20046;-65
2020/12/29 08:24:05;;;;;;;9.93;5.90;;;;;;;;;;5015662;28;20044;-65
2020/12/29 08:26:31;;;;;;;9.38;5.53;;;;;;;;;;5015887;28;20100;-65
2020/12/29 08:28:58;;;;;;;23.23;13.43;;;;;;;;;;5015517;28;20344;-64
2020/12/29 08:31:26;;;;;;;21.05;13.05;;;;;;;;;;5002708;28;20121;-65
2020/12/29 08:33:53;;;;;;;16.70;10.15;;;;;;;;;;5017153;28;20391;-63
2020/12/29 08:36:29;;;;;;;15.75;7.97;;;;;;;;;;5018505;28;20030;-64
2020/12/29 08:39:01;;;;;;;14.65;7.63;;;;;;;;;;5015168;28;20053;-63
2020/12/29 08:41:31;;;;;;;14.95;8.85;;;;;;;;;;5032129;28;20494;-64
2020/12/29 08:44:01;;;;;;;15.05;7.60;;;;;;;;;;5028563;28;20034;-64
2020/12/29 08:46:33;;;;;;;17.58;7.78;;;;;;;;;;5035415;28;20027;-64
2020/12/29 08:49:00;;;;;;;15.35;8.40;;;;;;;;;;5017103;28;20048;-63
2020/12/29 08:51:31;;;;;;;40.53;21.58;;;;;;;;;;5015118;28;20037;-64
2020/12/29 08:54:13;;;;;;;79.25;44.47;;;;;;;;;;5014987;28;20030;-63
2020/12/29 08:56:39;;;;;;;23.27;11.43;;;;;;;;;;5015018;28;20029;-63
2020/12/29 08:59:13;;;;;;;25.48;14.60;;;;;;;;;;5014981;28;20092;-61
2020/12/29 09:01:40;;;;;;;19.48;13.50;;;;;;;;;;5015245;28;20471;-62
2020/12/29 09:04:21;;;;;;;21.10;11.05;;;;;;;;;;5014757;28;20038;-61
2020/12/29 09:06:58;;;;;;;23.48;11.63;;;;;;;;;;5014831;28;20033;-61
2020/12/29 09:09:24;;;;;;;27.08;17.45;;;;;;;;;;5014668;28;20022;-59
2020/12/29 09:12:04;;;;;;;23.75;15.50;;;;;;;;;;5014669;28;20475;-61
2020/12/29 09:14:30;;;;;;;18.77;13.02;;;;;;;;;;5014974;28;20029;-62
2020/12/29 09:17:08;;;;;;;22.30;11.55;;;;;;;;;;5014856;28;20030;-61
2020/12/29 09:19:35;;;;;;;18.75;10.65;;;;;;;;;;5014715;28;20467;-61
2020/12/29 09:22:05;;;;;;;25.00;12.35;;;;;;;;;;5015040;28;20026;-61
2020/12/29 09:24:31;;;;;;;28.08;14.82;;;;;;;;;;5014292;28;20029;-61
2020/12/29 09:26:57;;;;;;;25.98;16.85;;;;;;;;;;5014403;28;20030;-61
2020/12/29 09:29:23;;;;;;;19.23;9.82;;;;;;;;;;5014239;28;20061;-62
2020/12/29 09:31:56;;;;;;;13.82;6.25;;;;;;;;;;5014165;28;20026;-61
2020/12/29 09:34:22;;;;;;;12.65;7.43;;;;;;;;;;5014345;28;20028;-61
2020/12/29 09:36:48;;;;;;;10.15;6.30;;;;;;;;;;5014743;28;20026;-62
2020/12/29 09:39:14;;;;;;;12.07;6.25;;;;;;;;;;5016402;28;20033;-61
2020/12/29 09:41:41;;;;;;;20.88;8.70;;;;;;;;;;5014328;28;20475;-61
2020/12/29 09:44:07;;;;;;;17.02;7.88;;;;;;;;;;4996337;28;20033;-61
2020/12/29 09:46:37;;;;;;;24.73;6.38;;;;;;;;;;5016716;28;20070;-60
2020/12/29 09:49:03;;;;;;;13.70;5.28;;;;;;;;;;5027275;28;20033;-60
2020/12/29 09:51:30;;;;;;;12.27;6.50;;;;;;;;;;5027218;28;20436;-59
2020/12/29 09:53:56;;;;;;;13.82;8.57;;;;;;;;;;5017245;28;20124;-60
2020/12/29 09:56:22;;;;;;;17.70;9.00;;;;;;;;;;5020866;28;20033;-61
2020/12/29 09:58:49;;;;;;;14.38;8.75;;;;;;;;;;5018415;28;20112;-61
2020/12/29 10:01:15;;;;;;;14.82;7.25;;;;;;;;;;5023871;28;20053;-59
2020/12/29 10:03:41;;;;;;;13.80;8.60;;;;;;;;;;5014878;28;20034;-60
2020/12/29 10:06:07;;;;;;;14.00;7.80;;;;;;;;;;5024537;28;20104;-61
2020/12/29 10:08:33;;;;;;;11.65;7.90;;;;;;;;;;5033329;28;20116;-60
2020/12/29 10:11:00;;;;;;;13.77;7.95;;;;;;;;;;5032354;28;20040;-61
2020/12/29 10:13:26;;;;;;;12.23;6.63;;;;;;;;;;5030014;28;20031;-62
2020/12/29 10:15:52;;;;;;;10.80;6.93;;;;;;;;;;5033111;28;20024;-62
2020/12/29 10:18:18;;;;;;;13.85;7.90;;;;;;;;;;5033314;28;20041;-61
2020/12/29 10:20:44;;;;;;;13.50;7.40;;;;;;;;;;5032039;28;20057;-61
2020/12/29 10:23:11;;;;;;;17.00;10.38;;;;;;;;;;5013074;28;20033;-61
2020/12/29 10:25:38;;;;;;;13.95;8.77;;;;;;;;;;5013112;28;20045;-60
2020/12/29 10:28:04;;;;;;;12.20;7.38;;;;;;;;;;5012874;28;20014;-60
2020/12/29 10:30:30;;;;;;;13.45;8.35;;;;;;;;;;5013255;28;20081;-60
2020/12/29 10:32:56;;;;;;;18.35;10.52;;;;;;;;;;5013044;28;20038;-61
2020/12/29 10:35:22;;;;;;;17.23;11.48;;;;;;;;;;5013414;28;20060;-62
2020/12/29 10:37:49;;;;;;;15.38;8.45;;;;;;;;;;5012743;28;20050;-62
2020/12/29 10:40:15;;;;;;;15.48;6.35;;;;;;;;;;5013438;28;20033;-60
2020/12/29 10:42:41;;;;;;;13.43;7.53;;;;;;;;;;5012761;28;20048;-61
2020/12/29 10:45:07;;;;;;;15.85;8.02;;;;;;;;;;5014326;28;20120;-62
2020/12/29 10:47:33;;;;;;;17.45;9.85;;;;;;;;;;5023977;28;20029;-60
2020/12/29 10:49:59;;;;;;;28.85;15.50;;;;;;;;;;5012958;28;20033;-59
2020/12/29 10:52:26;;;;;;;25.95;14.93;;;;;;;;;;5012714;28;20029;-60
2020/12/29 10:54:52;;;;;;;20.83;13.35;;;;;;;;;;5013478;28;20026;-61
2020/12/29 10:57:19;;;;;;;11.18;7.03;;;;;;;;;;5013621;28;20463;-61
2020/12/29 10:59:45;;;;;;;9.65;5.45;;;;;;;;;;5026853;28;20025;-60
2020/12/29 11:02:11;;;;;;;10.23;4.90;;;;;;;;;;5019972;28;20037;-61
2020/12/29 11:04:37;;;;;;;9.75;4.85;;;;;;;;;;5016518;28;20422;-60
2020/12/29 11:07:04;;;;;;;9.95;5.57;;;;;;;;;;5015075;28;20076;-60
2020/12/29 11:09:30;;;;;;;12.40;6.15;;;;;;;;;;5019819;28;20057;-60
2020/12/29 11:11:56;;;;;;;11.35;6.05;;;;;;;;;;5016056;28;20022;-62
2020/12/29 11:14:22;;;;;;;12.48;7.45;;;;;;;;;;5016898;28;20030;-62
2020/12/29 11:16:49;;;;;;;13.20;7.30;;;;;;;;;;5017023;28;20025;-62
2020/12/29 11:19:15;;;;;;;9.40;5.07;;;;;;;;;;5017019;28;20037;-61
2020/12/29 11:21:41;;;;;;;9.20;5.57;;;;;;;;;;5016447;28;20494;-62
2020/12/29 11:24:08;;;;;;;10.43;4.70;;;;;;;;;;5016878;28;20046;-62
2020/12/29 11:26:34;;;;;;;9.30;5.45;;;;;;;;;;5016429;28;20041;-62
2020/12/29 11:29:00;;;;;;;9.05;5.22;;;;;;;;;;5016489;28;20096;-62
2020/12/29 11:31:27;;;;;;;8.05;4.20;;;;;;;;;;5016371;28;20077;-62
2020/12/29 11:33:53;;;;;;;8.15;3.75;;;;;;;;;;5016603;28;20022;-62
2020/12/29 11:36:21;;;;;;;9.32;3.60;;;;;;;;;;5016389;28;20038;-62
2020/12/29 11:38:47;;;;;;;37.33;24.38;;;;;;;;;;5016402;28;20030;-61
2020/12/29 11:41:14;;;;;;;33.17;16.67;;;;;;;;;;5016349;28;20485;-61
2020/12/29 11:43:41;;;;;;;17.10;9.85;;;;;;;;;;5015884;28;20029;-60
2020/12/29 11:46:08;;;;;;;10.82;5.50;;;;;;;;;;5015647;28;20041;-62
2020/12/29 11:48:35;;;;;;;17.30;9.20;;;;;;;;;;5020925;28;20079;-61
2020/12/29 11:51:01;;;;;;;13.00;8.32;;;;;;;;;;5032672;28;20116;-61
2020/12/29 11:53:27;;;;;;;11.73;8.02;;;;;;;;;;5016415;28;20026;-62
2020/12/29 11:55:53;;;;;;;16.27;6.50;;;;;;;;;;5018065;28;20060;-61
2020/12/29 11:58:19;;;;;;;11.35;5.35;;;;;;;;;;5017741;28;20065;-62
2020/12/29 12:00:46;;;;;;;8.68;4.30;;;;;;;;;;5015693;28;20459;-62
2020/12/29 12:03:12;;;;;;;13.18;7.72;;;;;;;;;;5026715;28;20681;-61
2020/12/29 12:05:38;;;;;;;15.18;9.73;;;;;;;;;;5015874;28;20029;-61
2020/12/29 12:08:04;;;;;;;30.33;16.25;;;;;;;;;;5015831;28;20136;-62
2020/12/29 12:10:31;;;;;;;32.45;18.55;;;;;;;;;;5014970;28;20030;-63
2020/12/29 12:12:57;;;;;;;28.65;17.50;;;;;;;;;;4998203;28;20395;-62
2020/12/29 12:15:23;;;;;;;25.67;15.02;;;;;;;;;;5015738;28;20477;-62
2020/12/29 12:17:49;;;;;;;21.58;11.55;;;;;;;;;;5015716;28;20026;-62
2020/12/29 12:20:15;;;;;;;20.10;10.50;;;;;;;;;;5015688;28;20097;-60
2020/12/29 12:22:42;;;;;;;18.85;9.88;;;;;;;;;;5015389;28;20164;-60
2020/12/29 12:25:09;;;;;;;17.08;8.82;;;;;;;;;;5015618;28;20042;-60
2020/12/29 12:27:36;;;;;;;15.30;7.95;;;;;;;;;;5015323;28;20390;-60
2020/12/29 12:30:03;;;;;;;15.57;8.38;;;;;;;;;;5015260;28;20415;-60
2020/12/29 12:32:30;;;;;;;11.70;7.97;;;;;;;;;;5015393;28;20029;-60
2020/12/29 12:34:58;;;;;;;20.50;9.02;;;;;;;;;;5015334;28;20056;-60
2020/12/29 12:37:24;;;;;;;21.35;11.27;;;;;;;;;;5015239;28;20080;-61
2020/12/29 12:39:51;;;;;;;16.98;9.25;;;;;;;;;;5015334;28;20533;-61
2020/12/29 12:42:20;;;;;;;30.52;15.25;;;;;;;;;;5015174;28;20471;-61
2020/12/29 12:44:46;;;;;;;18.42;10.02;;;;;;;;;;5015184;28;20056;-61
2020/12/29 12:47:13;;;;;;;12.00;6.65;;;;;;;;;;5015328;28;20025;-61
2020/12/29 12:49:39;;;;;;;13.48;7.93;;;;;;;;;;5015237;28;20097;-62
2020/12/29 12:52:05;;;;;;;12.55;7.05;;;;;;;;;;5014951;28;20032;-61
2020/12/29 12:54:31;;;;;;;18.35;9.48;;;;;;;;;;5015061;28;20030;-62
2020/12/29 12:56:57;;;;;;;13.57;6.53;;;;;;;;;;5015042;28;20037;-61
2020/12/29 12:59:23;;;;;;;10.20;3.80;;;;;;;;;;4997672;28;20034;-61
2020/12/29 13:01:53;;;;;;;13.05;7.82;;;;;;;;;;5014810;28;20105;-61
2020/12/29 13:04:20;;;;;;;12.95;8.30;;;;;;;;;;5014801;28;20076;-62
2020/12/29 13:06:46;;;;;;;21.73;15.52;;;;;;;;;;5014934;28;20033;-61
2020/12/29 13:09:12;;;;;;;11.68;7.07;;;;;;;;;;5015001;28;20466;-62
2020/12/29 13:11:38;;;;;;;12.38;6.80;;;;;;;;;;5014829;28;20022;-62
2020/12/29 13:14:04;;;;;;;12.07;7.18;;;;;;;;;;5014805;28;20033;-61
2020/12/29 13:16:31;;;;;;;8.10;5.80;;;;;;;;;;5014872;28;20018;-62
2020/12/29 13:18:57;;;;;;;13.45;7.05;;;;;;;;;;5014858;28;20390;-62
2020/12/29 13:21:23;;;;;;;11.57;6.97;;;;;;;;;;5013947;28;20029;-60
2020/12/29 13:23:50;;;;;;;12.45;6.93;;;;;;;;;;5014312;28;20037;-61
2020/12/29 13:26:16;;;;;;;13.43;6.68;;;;;;;;;;5014348;28;20026;-63
2020/12/29 13:28:43;;;;;;;12.68;7.20;;;;;;;;;;5014267;28;20106;-60
2020/12/29 13:31:10;;;;;;;15.15;7.45;;;;;;;;;;5014094;28;20038;-61
2020/12/29 13:33:37;;;;;;;15.90;8.40;;;;;;;;;;5014218;28;20022;-60
2020/12/29 13:36:04;;;;;;;12.43;7.60;;;;;;;;;;5014285;28;20049;-61
2020/12/29 13:38:30;;;;;;;10.38;6.20;;;;;;;;;;5014136;28;20026;-61
2020/12/29 13:40:57;;;;;;;14.50;6.30;;;;;;;;;;5014480;28;20340;-61
2020/12/29 13:43:23;;;;;;;11.63;7.18;;;;;;;;;;5013918;28;20033;-62
2020/12/29 13:45:49;;;;;;;8.90;6.13;;;;;;;;;;5014067;28;20030;-62
2020/12/29 13:48:15;;;;;;;11.68;6.75;;;;;;;;;;5014319;28;20370;-61
2020/12/29 13:50:41;;;;;;;11.48;6.93;;;;;;;;;;5014098;28;20157;-61
2020/12/29 13:53:07;;;;;;;9.98;7.03;;;;;;;;;;5013906;28;20022;-61
2020/12/29 13:55:34;;;;;;;17.05;8.95;;;;;;;;;;5014051;28;20042;-61
2020/12/29 13:58:00;;;;;;;16.77;9.10;;;;;;;;;;5014208;28;20486;-60
2020/12/29 14:00:26;;;;;;;19.13;11.77;;;;;;;;;;5013966;28;20092;-62
2020/12/29 14:02:52;;;;;;;16.50;9.38;;;;;;;;;;5013985;28;20021;-59
2020/12/29 14:05:19;;;;;;;13.13;8.40;;;;;;;;;;5013725;28;20037;-59
2020/12/29 14:07:45;;;;;;;8.38;4.25;;;;;;;;;;5014124;28;20355;-59
2020/12/29 14:10:11;;;;;;;5.18;2.67;;;;;;;;;;5025898;28;20075;-60
2020/12/29 14:12:38;;;;;;;3.58;1.83;;;;;;;;;;5016274;28;20435;-60
2020/12/29 14:15:04;;;;;;;4.13;1.85;;;;;;;;;;5010485;28;20026;-59
2020/12/29 14:17:31;;;;;;;9.13;4.13;;;;;;;;;;5013569;28;20112;-60
2020/12/29 14:19:57;;;;;;;10.00;6.22;;;;;;;;;;5013496;28;20018;-60
2020/12/29 14:22:24;;;;;;;15.40;8.75;;;;;;;;;;5013545;28;20030;-60
2020/12/29 14:24:53;;;;;;;18.20;8.10;;;;;;;;;;5013636;28;20045;-60
2020/12/29 14:27:19;;;;;;;21.70;10.43;;;;;;;;;;5013070;28;20022;-60